Time;durP1;ratioP1;P1;durP2;ratioP2;P2;SDS_P1;SDS_P2;PMS_P1;PMS_P2;Temp;Humidity;BMP_temperature;BMP_pressure;BME280_temperature;BME280_humidity;BME280_pressure;Samples;Min_cycle;Max_cycle;Signal;HPM_P1;HPM_P2
2020/12/22 00:01:24;;;;;;;1.10;1.10;;;20.20;55.30;;;;;;5075084;28;20477;-70
2020/12/22 00:03:51;;;;;;;1.67;1.37;;;20.20;55.30;;;;;;5072431;28;21004;-70
2020/12/22 00:06:21;;;;;;;1.90;1.80;;;20.20;55.40;;;;;;5072713;28;20871;-70
2020/12/22 00:08:48;;;;;;;1.70;1.60;;;20.20;55.40;;;;;;5054653;28;20556;-70
2020/12/22 00:11:14;;;;;;;1.67;1.57;;;20.10;55.20;;;;;;5015906;28;20980;-69
2020/12/22 00:13:40;;;;;;;1.83;1.73;;;20.20;55.40;;;;;;5020759;28;20479;-70
2020/12/22 00:16:06;;;;;;;1.83;1.57;;;20.10;55.20;;;;;;5035805;28;20842;-71
2020/12/22 00:18:33;;;;;;;1.40;1.40;;;20.10;55.20;;;;;;5043158;28;20474;-70
2020/12/22 00:21:00;;;;;;;1.70;1.63;;;20.10;55.30;;;;;;5031875;28;20494;-71
2020/12/22 00:23:26;;;;;;;1.60;1.50;;;20.10;55.20;;;;;;5038552;28;20494;-72
2020/12/22 00:25:52;;;;;;;1.17;1.17;;;20.10;55.20;;;;;;5043868;28;20487;-70
2020/12/22 00:28:18;;;;;;;2.00;1.47;;;20.10;55.20;;;;;;5066439;28;20981;-70
2020/12/22 00:30:44;;;;;;;1.30;1.30;;;20.10;55.30;;;;;;5059651;28;20596;-70
2020/12/22 00:33:11;;;;;;;1.70;1.70;;;20.10;55.20;;;;;;5072579;28;21076;-71
2020/12/22 00:35:38;;;;;;;1.40;1.37;;;20.10;55.20;;;;;;5065061;28;20480;-70
2020/12/22 00:38:04;;;;;;;1.13;1.13;;;20.10;55.20;;;;;;5035648;28;21017;-70
2020/12/22 00:40:30;;;;;;;1.50;1.40;;;20.20;55.40;;;;;;5048320;28;20909;-70
2020/12/22 00:43:00;;;;;;;1.50;1.50;;;20.20;55.40;;;;;;5029245;28;20491;-70
2020/12/22 00:45:26;;;;;;;4.83;1.03;;;20.10;55.20;;;;;;5051047;28;20490;-69
2020/12/22 00:47:53;;;;;;;1.53;1.53;;;20.20;55.30;;;;;;5050984;28;20477;-69
2020/12/22 00:50:19;;;;;;;1.67;1.67;;;20.20;55.30;;;;;;5033608;28;21090;-71
2020/12/22 00:52:46;;;;;;;1.40;1.30;;;20.10;55.20;;;;;;5045920;28;20485;-70
2020/12/22 00:55:12;;;;;;;1.20;1.20;;;20.20;55.30;;;;;;5038559;28;20496;-70
2020/12/22 00:57:38;;;;;;;1.20;1.20;;;20.20;55.30;;;;;;5040314;28;20485;-70
2020/12/22 01:00:05;;;;;;;1.23;1.23;;;20.10;55.20;;;;;;5042031;28;20483;-70
2020/12/22 01:02:31;;;;;;;1.17;1.10;;;20.10;55.30;;;;;;5018975;28;21479;-70
2020/12/22 01:04:57;;;;;;;1.13;1.00;;;20.10;55.20;;;;;;5032490;28;20477;-70
2020/12/22 01:07:24;;;;;;;1.37;1.27;;;20.10;55.20;;;;;;5046561;28;20533;-70
2020/12/22 01:09:51;;;;;;;1.13;1.13;;;20.10;55.30;;;;;;5059850;28;20513;-71
2020/12/22 01:12:17;;;;;;;1.20;1.20;;;20.10;55.20;;;;;;5066599;28;20498;-71
2020/12/22 01:14:44;;;;;;;1.40;1.40;;;20.10;55.20;;;;;;5066595;27;20486;-71
2020/12/22 01:17:10;;;;;;;1.30;1.30;;;20.10;55.20;;;;;;5062823;28;21155;-70
2020/12/22 01:19:37;;;;;;;1.47;1.10;;;20.10;55.20;;;;;;5071230;28;20480;-70
2020/12/22 01:22:03;;;;;;;1.33;1.10;;;20.10;55.20;;;;;;5072144;28;20524;-70
2020/12/22 01:24:29;;;;;;;0.77;0.77;;;20.10;55.20;;;;;;5071657;28;20488;-71
2020/12/22 01:26:57;;;;;;;1.23;1.10;;;20.10;55.20;;;;;;5072473;28;20484;-71
2020/12/22 01:29:23;;;;;;;1.67;1.57;;;20.10;55.20;;;;;;5061609;28;20512;-70
2020/12/22 01:31:49;;;;;;;1.10;1.10;;;20.10;55.20;;;;;;5071716;28;20481;-70
2020/12/22 01:34:15;;;;;;;0.80;0.80;;;20.10;55.20;;;;;;5071912;28;20474;-70
2020/12/22 01:36:41;;;;;;;0.97;0.97;;;20.10;55.30;;;;;;5069302;28;20945;-71
2020/12/22 01:39:07;;;;;;;2.00;1.10;;;20.10;55.20;;;;;;5070840;28;21004;-71
2020/12/22 01:41:34;;;;;;;0.83;0.83;;;20.10;55.20;;;;;;5075112;28;20495;-70
2020/12/22 01:44:05;;;;;;;0.97;0.97;;;20.10;55.20;;;;;;5071467;28;20496;-70
2020/12/22 01:46:33;;;;;;;1.03;1.03;;;20.20;55.30;;;;;;5076572;28;20546;-71
2020/12/22 01:48:59;;;;;;;0.80;0.80;;;20.20;55.40;;;;;;5062978;28;20479;-70
2020/12/22 01:51:25;;;;;;;1.50;1.50;;;20.20;55.30;;;;;;5074496;27;20511;-70
2020/12/22 01:53:52;;;;;;;0.80;0.80;;;20.20;55.30;;;;;;5065869;28;20481;-71
2020/12/22 01:56:18;;;;;;;1.80;0.90;;;20.20;55.30;;;;;;5061776;28;20484;-70
2020/12/22 01:58:44;;;;;;;1.03;0.80;;;20.20;55.30;;;;;;5059287;28;20521;-71
2020/12/22 02:01:11;;;;;;;0.90;0.90;;;20.20;55.30;;;;;;5073762;28;20481;-70
2020/12/22 02:03:37;;;;;;;0.70;0.70;;;20.20;55.40;;;;;;5071612;28;20985;-70
2020/12/22 02:06:03;;;;;;;1.00;0.90;;;20.20;55.30;;;;;;5055863;28;21227;-69
2020/12/22 02:08:30;;;;;;;0.80;0.80;;;20.20;56.10;;;;;;5068559;28;21073;-70
2020/12/22 02:10:56;;;;;;;2.10;1.43;;;20.20;55.30;;;;;;5057128;28;21375;-71
2020/12/22 02:13:22;;;;;;;0.80;0.80;;;20.20;55.30;;;;;;5063932;27;20576;-70
2020/12/22 02:15:48;;;;;;;0.80;0.80;;;20.20;55.30;;;;;;5072516;27;20480;-70
2020/12/22 02:18:15;;;;;;;0.83;0.83;;;20.20;55.30;;;;;;5046062;28;20489;-70
2020/12/22 02:20:42;;;;;;;0.77;0.73;;;20.20;55.40;;;;;;5046629;28;20474;-71
2020/12/22 02:23:09;;;;;;;0.93;0.70;;;20.20;55.40;;;;;;5040409;28;20480;-71
2020/12/22 02:25:35;;;;;;;2.80;1.43;;;20.20;55.30;;;;;;5049788;28;20488;-70
2020/12/22 02:28:01;;;;;;;0.63;0.60;;;20.20;55.20;;;;;;5037802;28;20532;-71
2020/12/22 02:30:27;;;;;;;1.27;0.83;;;20.20;55.30;;;;;;5050852;28;20495;-70
2020/12/22 02:32:54;;;;;;;0.70;0.70;;;20.20;55.30;;;;;;5052153;28;21009;-70
2020/12/22 02:35:20;;;;;;;0.60;0.60;;;20.20;55.40;;;;;;5047593;28;21086;-70
2020/12/22 02:37:46;;;;;;;0.73;0.73;;;20.20;55.30;;;;;;5040045;28;21107;-70
2020/12/22 02:40:13;;;;;;;0.90;0.90;;;20.20;55.30;;;;;;5051517;28;20493;-70
2020/12/22 02:42:39;;;;;;;1.07;1.00;;;20.20;55.30;;;;;;5046740;28;20481;-72
2020/12/22 02:45:05;;;;;;;1.43;0.70;;;20.20;55.30;;;;;;5048687;28;21113;-71
2020/12/22 02:47:31;;;;;;;0.70;0.70;;;20.30;55.40;;;;;;5053288;28;20990;-70
2020/12/22 02:49:57;;;;;;;0.50;0.50;;;20.20;55.40;;;;;;5049933;28;20474;-70
2020/12/22 02:52:24;;;;;;;0.73;0.73;;;20.20;55.40;;;;;;5046618;28;20495;-70
2020/12/22 02:54:50;;;;;;;0.50;0.50;;;20.20;55.40;;;;;;5026917;28;20508;-70
2020/12/22 02:57:17;;;;;;;1.73;0.80;;;20.20;55.30;;;;;;5034942;28;20560;-70
2020/12/22 02:59:43;;;;;;;0.83;0.83;;;20.20;55.30;;;;;;5012308;28;20474;-71
2020/12/22 03:02:09;;;;;;;0.60;0.60;;;20.20;55.30;;;;;;5038944;28;20474;-70
2020/12/22 03:04:35;;;;;;;0.70;0.70;;;20.20;55.30;;;;;;5026902;28;20498;-71
2020/12/22 03:07:01;;;;;;;1.27;0.70;;;20.30;55.40;;;;;;5034748;28;20482;-70
2020/12/22 03:09:27;;;;;;;0.70;0.70;;;20.30;55.20;;;;;;5016186;28;21012;-70
2020/12/22 03:11:54;;;;;;;0.97;0.87;;;20.30;55.40;;;;;;5031786;28;20509;-71
2020/12/22 03:14:21;;;;;;;0.60;0.60;;;20.30;55.20;;;;;;5027066;28;20505;-70
2020/12/22 03:16:47;;;;;;;0.50;0.50;;;20.30;55.40;;;;;;5020140;28;20482;-70
2020/12/22 03:19:13;;;;;;;0.50;0.50;;;20.30;55.20;;;;;;5046579;28;20485;-71
2020/12/22 03:21:39;;;;;;;0.60;0.60;;;20.30;55.30;;;;;;5047610;28;20482;-71
2020/12/22 03:24:05;;;;;;;0.60;0.60;;;20.30;55.10;;;;;;5044250;28;21010;-71
2020/12/22 03:26:31;;;;;;;0.73;0.73;;;20.30;55.50;;;;;;5023638;28;20487;-70
2020/12/22 03:28:57;;;;;;;0.53;0.53;;;20.30;55.50;;;;;;5052956;28;20483;-70
2020/12/22 03:31:24;;;;;;;0.50;0.50;;;20.30;55.40;;;;;;5012358;28;20548;-70
2020/12/22 03:33:50;;;;;;;0.50;0.50;;;20.30;55.30;;;;;;5050662;28;20481;-70
2020/12/22 03:36:17;;;;;;;0.60;0.60;;;20.30;55.40;;;;;;5038414;28;20485;-69
2020/12/22 03:38:43;;;;;;;0.80;0.50;;;20.30;54.90;;;;;;5039852;28;20470;-70
2020/12/22 03:41:09;;;;;;;0.50;0.50;;;20.30;55.10;;;;;;5070153;28;21005;-70
2020/12/22 03:43:36;;;;;;;0.70;0.70;;;20.30;55.10;;;;;;5037614;28;21003;-70
2020/12/22 03:46:02;;;;;;;0.60;0.60;;;20.30;54.90;;;;;;5050380;28;20996;-70
2020/12/22 03:48:29;;;;;;;0.50;0.50;;;20.30;55.30;;;;;;5048680;28;20478;-70
2020/12/22 03:50:57;;;;;;;0.60;0.60;;;20.30;55.40;;;;;;5038013;28;20497;-71
2020/12/22 03:53:23;;;;;;;0.57;0.57;;;20.30;55.40;;;;;;5037747;28;20474;-70
2020/12/22 03:55:49;;;;;;;0.53;0.53;;;20.40;55.20;;;;;;5052571;28;20477;-71
2020/12/22 03:58:15;;;;;;;0.50;0.50;;;20.30;55.30;;;;;;5009301;28;20482;-71
2020/12/22 04:00:41;;;;;;;0.97;0.90;;;20.30;55.30;;;;;;5033824;28;20523;-71
2020/12/22 04:03:07;;;;;;;0.70;0.70;;;20.30;55.40;;;;;;5055350;28;20486;-70
2020/12/22 04:05:34;;;;;;;0.60;0.60;;;20.30;55.40;;;;;;5027426;28;21010;-71
2020/12/22 04:08:00;;;;;;;0.50;0.40;;;20.30;55.40;;;;;;5039483;28;20491;-71
2020/12/22 04:10:27;;;;;;;0.60;0.60;;;20.30;55.40;;;;;;5050654;28;20469;-71
2020/12/22 04:12:53;;;;;;;0.47;0.47;;;20.30;55.40;;;;;;5058162;28;20469;-71
2020/12/22 04:15:19;;;;;;;0.40;0.40;;;20.30;55.40;;;;;;5067884;28;20484;-71
2020/12/22 04:17:45;;;;;;;0.50;0.50;;;20.30;55.40;;;;;;5065602;28;20476;-72
2020/12/22 04:20:11;;;;;;;0.70;0.60;;;20.30;55.40;;;;;;5069753;28;20983;-72
2020/12/22 04:22:38;;;;;;;0.50;0.50;;;20.30;55.50;;;;;;5070526;28;22047;-71
2020/12/22 04:25:04;;;;;;;0.43;0.40;;;20.30;55.40;;;;;;5060996;28;21291;-71
2020/12/22 04:27:31;;;;;;;0.43;0.43;;;20.40;55.50;;;;;;5053657;28;20874;-70
2020/12/22 04:29:57;;;;;;;0.40;0.40;;;20.40;55.50;;;;;;5069782;28;20469;-71
2020/12/22 04:32:23;;;;;;;0.50;0.50;;;20.50;55.60;;;;;;5036005;28;20485;-71
2020/12/22 04:34:50;;;;;;;0.60;0.50;;;20.50;55.60;;;;;;5053561;28;21640;-71
2020/12/22 04:37:17;;;;;;;0.50;0.50;;;20.50;55.60;;;;;;5039976;28;20527;-71
2020/12/22 04:39:44;;;;;;;0.90;0.50;;;20.50;55.60;;;;;;5058617;28;20488;-71
2020/12/22 04:42:10;;;;;;;0.50;0.50;;;20.60;55.70;;;;;;5050842;28;20488;-71
2020/12/22 04:44:36;;;;;;;1.27;0.40;;;20.60;55.70;;;;;;5059457;28;20481;-71
2020/12/22 04:47:02;;;;;;;0.80;0.50;;;20.60;55.70;;;;;;5049888;28;21286;-71
2020/12/22 04:49:29;;;;;;;0.70;0.50;;;20.60;55.70;;;;;;5070325;28;20915;-71
2020/12/22 04:51:55;;;;;;;1.43;0.50;;;20.60;55.70;;;;;;5045375;28;20504;-71
2020/12/22 04:54:21;;;;;;;0.70;0.70;;;20.60;55.70;;;;;;5064969;28;21312;-71
2020/12/22 04:56:48;;;;;;;0.70;0.50;;;20.60;55.70;;;;;;5060266;28;20559;-71
2020/12/22 04:59:14;;;;;;;0.50;0.50;;;20.60;55.70;;;;;;5037410;28;21046;-71
2020/12/22 05:01:41;;;;;;;0.50;0.40;;;20.60;55.70;;;;;;5070461;28;20517;-71
2020/12/22 05:04:12;;;;;;;0.50;0.50;;;20.60;55.70;;;;;;5072799;28;20871;-71
2020/12/22 05:06:38;;;;;;;0.50;0.40;;;20.60;55.70;;;;;;5070827;28;20556;-70
2020/12/22 05:09:04;;;;;;;0.40;0.40;;;20.60;55.70;;;;;;5051393;28;20488;-70
2020/12/22 05:11:31;;;;;;;0.50;0.50;;;20.60;55.70;;;;;;5034070;28;20482;-71
2020/12/22 05:13:58;;;;;;;0.40;0.30;;;20.60;55.70;;;;;;5037608;28;20550;-70
2020/12/22 05:16:27;;;;;;;1.33;0.57;;;20.60;55.70;;;;;;5037700;28;20489;-70
2020/12/22 05:18:54;;;;;;;0.40;0.40;;;20.60;55.70;;;;;;5050424;28;20482;-71
2020/12/22 05:21:20;;;;;;;0.50;0.50;;;20.70;55.70;;;;;;5047690;28;20493;-69
2020/12/22 05:23:47;;;;;;;0.83;0.40;;;20.70;55.80;;;;;;5049256;28;20493;-70
2020/12/22 05:26:13;;;;;;;0.40;0.40;;;20.70;55.70;;;;;;5049764;28;20490;-70
2020/12/22 05:28:39;;;;;;;0.70;0.50;;;20.70;55.70;;;;;;5047638;28;20473;-71
2020/12/22 05:31:11;;;;;;;0.40;0.40;;;20.70;55.70;;;;;;5052179;28;20490;-70
2020/12/22 05:33:38;;;;;;;0.50;0.50;;;20.70;55.70;;;;;;5047075;28;20559;-70
2020/12/22 05:36:04;;;;;;;0.40;0.40;;;20.70;55.80;;;;;;5051551;28;20493;-70
2020/12/22 05:38:30;;;;;;;0.57;0.57;;;20.70;55.80;;;;;;5025531;28;21062;-70
2020/12/22 05:40:56;;;;;;;0.60;0.60;;;20.70;55.70;;;;;;5054463;28;20494;-70
2020/12/22 05:43:23;;;;;;;0.90;0.67;;;20.70;56.00;;;;;;5066755;28;20473;-69
2020/12/22 05:45:49;;;;;;;0.60;0.60;;;20.70;55.70;;;;;;5050942;28;20473;-70
2020/12/22 05:48:16;;;;;;;0.70;0.60;;;20.70;55.80;;;;;;5059269;28;20493;-71
2020/12/22 05:50:47;;;;;;;0.50;0.50;;;20.70;56.50;;;;;;5055992;28;20542;-69
2020/12/22 05:53:14;;;;;;;0.60;0.60;;;20.70;57.20;;;;;;5064156;28;20476;-71
2020/12/22 05:55:40;;;;;;;0.40;0.40;;;20.70;56.40;;;;;;5064209;28;20477;-70
2020/12/22 05:58:07;;;;;;;0.60;0.60;;;20.70;56.40;;;;;;5049226;28;20482;-71
2020/12/22 06:00:34;;;;;;;0.53;0.53;;;20.70;56.50;;;;;;5048051;28;20571;-70
2020/12/22 06:03:04;;;;;;;0.50;0.50;;;20.70;56.60;;;;;;5048544;28;20490;-70
2020/12/22 06:05:31;;;;;;;0.50;0.50;;;20.70;56.70;;;;;;5044400;28;20562;-71
2020/12/22 06:07:57;;;;;;;0.53;0.53;;;20.70;56.80;;;;;;5048506;28;20489;-71
2020/12/22 06:10:23;;;;;;;1.20;1.20;;;20.70;56.90;;;;;;5041015;28;20492;-71
2020/12/22 06:12:49;;;;;;;1.17;1.17;;;20.20;59.80;;;;;;5046965;28;21616;-70
2020/12/22 06:15:15;;;;;;;1.67;1.57;;;19.80;61.40;;;;;;5039213;28;20501;-70
2020/12/22 06:17:42;;;;;;;6.03;2.00;;;19.40;61.90;;;;;;4995866;28;20491;-69
2020/12/22 06:20:08;;;;;;;1.27;1.27;;;19.20;62.50;;;;;;5047892;28;20540;-71
2020/12/22 06:22:35;;;;;;;1.50;1.50;;;19.00;63.00;;;;;;5017277;28;20490;-70
2020/12/22 06:25:01;;;;;;;2.33;1.47;;;18.90;63.60;;;;;;5049573;28;20506;-71
2020/12/22 06:27:32;;;;;;;1.70;1.57;;;18.80;64.30;;;;;;5053548;28;20477;-71
2020/12/22 06:29:58;;;;;;;1.40;1.30;;;18.70;64.40;;;;;;5050380;28;20572;-71
2020/12/22 06:32:25;;;;;;;1.23;1.23;;;18.60;64.60;;;;;;5054201;28;21621;-72
2020/12/22 06:34:52;;;;;;;1.00;1.00;;;18.60;65.20;;;;;;5052435;28;20476;-70
2020/12/22 06:37:21;;;;;;;1.53;1.00;;;18.60;65.10;;;;;;5049302;28;20538;-70
2020/12/22 06:39:48;;;;;;;1.77;1.43;;;18.50;65.20;;;;;;5047921;28;20997;-70
2020/12/22 06:42:41;;;;;;;0.90;0.90;;;18.50;65.70;;;;;;5050777;28;20485;-70
2020/12/22 06:45:27;;;;;;;2.90;1.00;;;18.40;65.70;;;;;;5070148;28;20491;-70
2020/12/22 06:47:53;;;;;;;0.67;0.67;;;18.50;66.40;;;;;;5070701;28;20481;-71
2020/12/22 06:50:39;;;;;;;1.87;1.10;;;19.00;63.00;;;;;;5072872;28;20499;-70
2020/12/22 06:53:05;;;;;;;0.97;0.97;;;19.20;64.10;;;;;;5039353;28;20496;-70
2020/12/22 06:55:50;;;;;;;0.87;0.87;;;19.00;64.20;;;;;;5068883;28;20486;-69
2020/12/22 06:58:36;;;;;;;0.50;0.40;;;19.30;63.30;;;;;;5061870;28;20496;-70
2020/12/22 07:01:30;;;;;;;0.70;0.70;;;19.70;63.20;;;;;;5060878;28;20489;-69
2020/12/22 07:04:26;;;;;;;0.43;0.43;;;19.70;63.30;;;;;;5070125;28;20464;-71
2020/12/22 07:06:56;;;;;;;0.50;0.50;;;20.00;62.10;;;;;;5040630;28;20574;-69
2020/12/22 07:09:23;;;;;;;0.77;0.53;;;20.00;61.80;;;;;;5049545;28;20486;-71
2020/12/22 07:11:52;;;;;;;0.60;0.50;;;20.10;62.00;;;;;;5044869;28;20481;-69
2020/12/22 07:14:19;;;;;;;0.50;0.50;;;20.20;60.80;;;;;;5045876;28;20582;-70
2020/12/22 07:16:50;;;;;;;0.50;0.50;;;20.30;60.60;;;;;;5079764;28;21052;-70
2020/12/22 07:19:21;;;;;;;0.50;0.50;;;20.20;61.00;;;;;;5026933;28;20923;-70
2020/12/22 07:21:47;;;;;;;0.47;0.47;;;20.20;61.00;;;;;;5007958;28;20495;-69
2020/12/22 07:24:14;;;;;;;0.50;0.50;;;20.10;61.00;;;;;;5022448;28;20703;-69
2020/12/22 07:26:41;;;;;;;0.50;0.50;;;20.20;60.90;;;;;;5043355;28;20482;-69
2020/12/22 07:29:08;;;;;;;2.60;2.27;;;20.20;60.90;;;;;;5046272;28;20482;-69
2020/12/22 07:31:34;;;;;;;1.70;0.60;;;20.10;61.00;;;;;;5047007;28;20485;-70
2020/12/22 07:34:05;;;;;;;0.47;0.40;;;20.10;61.30;;;;;;5039393;28;20520;-70
2020/12/22 07:36:31;;;;;;;0.60;0.50;;;20.00;61.30;;;;;;5030300;28;20490;-70
2020/12/22 07:39:10;;;;;;;0.50;0.40;;;20.10;61.30;;;;;;5047119;28;20477;-71
2020/12/22 07:41:36;;;;;;;0.40;0.40;;;20.20;60.90;;;;;;5062015;28;20482;-70
2020/12/22 07:44:10;;;;;;;0.50;0.50;;;20.30;61.00;;;;;;5066690;28;20507;-71
2020/12/22 07:46:38;;;;;;;0.70;0.70;;;20.30;62.00;;;;;;5052262;28;20485;-71
2020/12/22 07:49:05;;;;;;;0.40;0.40;;;20.20;61.10;;;;;;5061404;28;20529;-71
2020/12/22 07:51:31;;;;;;;1.20;1.20;;;20.20;60.90;;;;;;5066635;28;21442;-71
2020/12/22 07:54:01;;;;;;;0.70;0.70;;;20.30;60.90;;;;;;5032924;28;20496;-70
2020/12/22 07:56:27;;;;;;;0.40;0.40;;;20.30;60.70;;;;;;5051878;28;21015;-71
2020/12/22 07:58:53;;;;;;;0.40;0.40;;;20.20;60.90;;;;;;5080986;28;20482;-70
2020/12/22 08:01:21;;;;;;;0.40;0.40;;;20.30;61.20;;;;;;5071355;28;20492;-70
2020/12/22 08:03:47;;;;;;;0.40;0.40;;;20.30;61.30;;;;;;5062120;28;20481;-69
2020/12/22 08:06:13;;;;;;;0.60;0.50;;;20.20;62.10;;;;;;5066272;28;21014;-70
2020/12/22 08:08:39;;;;;;;0.50;0.50;;;20.20;61.10;;;;;;5041915;28;21008;-70
2020/12/22 08:11:05;;;;;;;1.70;0.50;;;20.30;61.20;;;;;;5048357;28;20478;-71
2020/12/22 08:13:32;;;;;;;0.93;0.50;;;20.30;60.80;;;;;;5066455;28;20860;-70
2020/12/22 08:15:58;;;;;;;3.60;1.33;;;20.30;60.90;;;;;;5069685;28;20481;-70
2020/12/22 08:18:26;;;;;;;0.60;0.60;;;20.30;60.70;;;;;;5070649;28;20491;-70
2020/12/22 08:20:52;;;;;;;0.80;0.60;;;20.30;61.50;;;;;;5046505;28;20486;-70
2020/12/22 08:23:18;;;;;;;0.50;0.50;;;20.30;61.20;;;;;;5058136;28;20554;-70
2020/12/22 08:25:45;;;;;;;0.40;0.40;;;20.20;62.00;;;;;;5057587;28;20475;-71
2020/12/22 08:28:11;;;;;;;1.73;0.47;;;20.20;61.60;;;;;;5043074;28;20481;-70
2020/12/22 08:30:37;;;;;;;0.50;0.50;;;20.10;61.60;;;;;;5059330;28;20476;-71
2020/12/22 08:33:03;;;;;;;0.67;0.40;;;20.30;62.10;;;;;;5070335;28;20496;-70
2020/12/22 08:35:30;;;;;;;0.47;0.40;;;20.20;61.60;;;;;;5061750;28;20492;-70
2020/12/22 08:37:57;;;;;;;0.77;0.70;;;20.10;62.60;;;;;;5067202;28;20479;-70
2020/12/22 08:40:26;;;;;;;0.40;0.40;;;20.10;63.20;;;;;;5045573;28;20523;-70
2020/12/22 08:42:53;;;;;;;1.63;0.47;;;20.10;61.80;;;;;;5041856;28;20488;-70
2020/12/22 08:45:19;;;;;;;0.60;0.60;;;20.10;61.90;;;;;;5037444;28;21048;-71
2020/12/22 08:47:50;;;;;;;1.13;0.50;;;20.10;62.80;;;;;;5043290;28;20871;-69
2020/12/22 08:50:18;;;;;;;0.40;0.40;;;20.10;61.80;;;;;;5012695;28;20486;-70
2020/12/22 08:52:45;;;;;;;0.50;0.50;;;19.80;63.10;;;;;;5008490;28;20479;-70
2020/12/22 08:55:12;;;;;;;0.60;0.60;;;20.00;62.00;;;;;;5030382;28;20495;-71
2020/12/22 08:57:38;;;;;;;0.60;0.60;;;20.20;61.50;;;;;;5053027;28;20483;-71
2020/12/22 09:00:11;;;;;;;0.50;0.50;;;20.20;61.10;;;;;;5039466;28;20483;-71
2020/12/22 09:02:37;;;;;;;0.40;0.40;;;20.30;60.80;;;;;;5052880;28;20482;-70
2020/12/22 09:05:10;;;;;;;0.50;0.50;;;20.40;60.80;;;;;;5054622;28;20485;-70
2020/12/22 09:07:37;;;;;;;0.50;0.47;;;20.40;60.50;;;;;;5050155;28;20482;-71
2020/12/22 09:10:05;;;;;;;0.50;0.50;;;20.50;60.40;;;;;;5027852;28;20497;-71
2020/12/22 09:12:32;;;;;;;0.40;0.40;;;20.60;60.30;;;;;;5037872;28;20740;-69
2020/12/22 09:14:59;;;;;;;0.50;0.50;;;20.60;60.00;;;;;;5047416;28;20531;-69
2020/12/22 09:17:28;;;;;;;0.40;0.40;;;20.70;59.70;;;;;;5024031;28;20490;-69
2020/12/22 09:19:54;;;;;;;0.50;0.50;;;20.80;59.50;;;;;;5035815;28;20501;-69
2020/12/22 09:22:21;;;;;;;0.97;0.40;;;20.80;59.20;;;;;;5061499;28;20488;-69
2020/12/22 09:24:50;;;;;;;1.10;0.50;;;20.80;59.10;;;;;;5064337;28;20610;-70
2020/12/22 09:27:17;;;;;;;0.53;0.53;;;20.80;59.10;;;;;;5072338;28;21468;-70
2020/12/22 09:29:43;;;;;;;0.80;0.43;;;20.50;60.90;;;;;;5048038;28;20556;-70
2020/12/22 09:32:10;;;;;;;0.40;0.40;;;20.10;61.70;;;;;;5075512;28;20473;-70
2020/12/22 09:34:38;;;;;;;1.30;0.50;;;20.30;61.10;;;;;;5073141;28;20492;-70
2020/12/22 09:37:05;;;;;;;0.50;0.40;;;20.40;60.70;;;;;;5062803;28;20496;-70
2020/12/22 09:39:32;;;;;;;0.40;0.40;;;20.40;60.50;;;;;;5013739;28;20486;-70
2020/12/22 09:41:58;;;;;;;0.47;0.47;;;20.50;60.60;;;;;;5044463;28;20477;-69
2020/12/22 09:44:25;;;;;;;0.67;0.60;;;20.50;60.40;;;;;;5035900;28;20489;-71
2020/12/22 09:46:53;;;;;;;0.50;0.50;;;20.60;60.40;;;;;;5033553;28;20523;-70
2020/12/22 09:49:19;;;;;;;2.10;0.40;;;20.60;60.40;;;;;;5054232;28;21027;-70
2020/12/22 09:51:45;;;;;;;0.40;0.40;;;20.70;60.50;;;;;;5072118;28;20546;-71
2020/12/22 09:54:11;;;;;;;0.50;0.40;;;20.70;60.30;;;;;;5067273;28;20963;-70
2020/12/22 09:56:37;;;;;;;2.40;0.40;;;20.80;60.10;;;;;;5014621;28;20499;-69
2020/12/22 09:59:04;;;;;;;0.40;0.40;;;20.80;60.00;;;;;;5011228;28;20493;-70
2020/12/22 10:01:31;;;;;;;1.70;0.40;;;20.80;60.00;;;;;;5043269;28;20480;-70
2020/12/22 10:03:57;;;;;;;0.93;0.40;;;20.80;59.90;;;;;;5033873;28;20477;-70
2020/12/22 10:06:24;;;;;;;0.30;0.30;;;20.90;59.90;;;;;;5051382;28;20477;-71
2020/12/22 10:08:50;;;;;;;0.40;0.40;;;20.90;59.80;;;;;;5025085;28;21637;-70
2020/12/22 10:11:17;;;;;;;0.40;0.40;;;20.90;59.70;;;;;;5014668;28;20524;-70
2020/12/22 10:13:43;;;;;;;0.50;0.50;;;20.90;59.70;;;;;;5028335;28;20493;-69
2020/12/22 10:16:10;;;;;;;0.40;0.40;;;20.90;59.80;;;;;;5071788;28;20481;-70
2020/12/22 10:18:37;;;;;;;0.50;0.50;;;20.90;59.70;;;;;;5070987;28;20497;-71
2020/12/22 10:21:04;;;;;;;0.50;0.50;;;20.90;59.70;;;;;;5071543;28;20472;-71
2020/12/22 10:23:31;;;;;;;0.40;0.40;;;20.90;59.70;;;;;;5067957;28;20937;-72
2020/12/22 10:25:57;;;;;;;0.40;0.40;;;21.00;59.80;;;;;;5069821;28;20547;-71
2020/12/22 10:28:23;;;;;;;0.40;0.40;;;21.00;59.70;;;;;;5066930;28;20483;-71
2020/12/22 10:30:49;;;;;;;0.77;0.77;;;21.00;59.60;;;;;;5082233;28;20489;-71
2020/12/22 10:33:16;;;;;;;0.40;0.40;;;21.00;59.60;;;;;;5069941;28;20493;-70
2020/12/22 10:35:43;;;;;;;0.50;0.50;;;21.00;59.60;;;;;;5068967;28;20514;-70
2020/12/22 10:38:09;;;;;;;0.40;0.40;;;21.00;59.70;;;;;;5068307;28;21136;-71
2020/12/22 10:40:35;;;;;;;0.40;0.40;;;21.00;59.70;;;;;;5072266;28;20485;-71
2020/12/22 10:43:01;;;;;;;0.30;0.30;;;21.00;59.70;;;;;;5067999;28;20791;-73
2020/12/22 10:45:27;;;;;;;3.73;0.93;;;21.00;59.70;;;;;;5070599;28;20500;-70
2020/12/22 10:47:54;;;;;;;11.10;0.60;;;21.00;60.20;;;;;;5044771;28;20500;-70
2020/12/22 10:50:20;;;;;;;4.40;1.23;;;21.00;60.60;;;;;;5027698;28;20498;-70
2020/12/22 10:52:47;;;;;;;1.80;0.70;;;21.00;60.30;;;;;;5042141;28;20489;-69
2020/12/22 10:55:13;;;;;;;5.63;0.50;;;20.90;60.00;;;;;;5046142;28;20488;-71
2020/12/22 10:57:39;;;;;;;1.47;0.53;;;20.90;59.80;;;;;;5053107;28;20474;-69
2020/12/22 11:00:06;;;;;;;1.10;0.40;;;20.90;59.90;;;;;;5044551;28;20577;-70
2020/12/22 11:02:32;;;;;;;1.00;0.50;;;20.90;60.10;;;;;;5035204;28;21023;-70
2020/12/22 11:04:58;;;;;;;3.07;1.20;;;20.90;60.30;;;;;;5046513;28;20496;-71
2020/12/22 11:07:28;;;;;;;5.73;1.90;;;20.90;73.70;;;;;;5026441;28;21659;-70
2020/12/22 11:09:55;;;;;;;8.70;1.47;;;21.10;86.20;;;;;;5025370;28;20490;-71
2020/12/22 11:12:21;;;;;;;14.93;2.17;;;21.50;90.20;;;;;;5044669;27;20489;-70
2020/12/22 11:14:48;;;;;;;6.40;1.50;;;21.70;80.80;;;;;;5051001;28;20488;-70
2020/12/22 11:17:14;;;;;;;9.70;1.53;;;21.90;73.80;;;;;;5054810;28;20484;-70
2020/12/22 11:19:40;;;;;;;8.23;1.20;;;21.90;68.20;;;;;;5046063;28;20477;-70
2020/12/22 11:22:06;;;;;;;3.90;1.13;;;21.80;64.10;;;;;;5031302;28;20499;-71
2020/12/22 11:24:32;;;;;;;8.77;1.63;;;21.70;63.40;;;;;;5029465;28;20881;-70
2020/12/22 11:26:59;;;;;;;11.40;2.00;;;21.50;62.70;;;;;;5018139;28;20926;-71
2020/12/22 11:29:25;;;;;;;10.70;2.10;;;21.50;62.00;;;;;;5049277;28;20481;-71
2020/12/22 11:31:51;;;;;;;16.80;2.00;;;21.50;69.00;;;;;;5038889;28;20490;-70
2020/12/22 11:34:17;;;;;;;10.47;1.20;;;21.70;73.00;;;;;;5037739;28;20485;-71
2020/12/22 11:36:48;;;;;;;8.53;1.60;;;22.00;67.60;;;;;;5037459;28;20496;-71
2020/12/22 11:39:14;;;;;;;7.97;1.90;;;22.10;60.80;;;;;;5034345;28;20508;-70
2020/12/22 11:41:40;;;;;;;2.60;1.30;;;22.10;58.80;;;;;;5038284;28;20929;-71
2020/12/22 11:44:07;;;;;;;4.70;2.97;;;22.00;60.60;;;;;;5048224;28;20487;-71
2020/12/22 11:46:33;;;;;;;1.27;1.17;;;22.10;64.80;;;;;;5046361;28;20482;-70
2020/12/22 11:48:59;;;;;;;10.33;1.67;;;22.30;59.90;;;;;;5041192;28;21021;-71
2020/12/22 11:51:26;;;;;;;2.70;1.07;;;22.30;57.20;;;;;;5052935;28;20839;-70
2020/12/22 11:53:52;;;;;;;3.50;1.10;;;22.20;57.10;;;;;;5045583;28;20484;-71
2020/12/22 11:56:18;;;;;;;3.90;1.17;;;22.10;57.00;;;;;;5045913;28;20525;-71
2020/12/22 11:58:44;;;;;;;1.63;1.47;;;21.90;58.00;;;;;;5053319;28;20508;-71
2020/12/22 12:01:11;;;;;;;3.70;1.53;;;21.80;57.40;;;;;;5054639;28;20470;-71
2020/12/22 12:03:37;;;;;;;4.43;2.00;;;21.70;57.80;;;;;;5046172;28;20477;-70
2020/12/22 12:06:03;;;;;;;4.00;1.50;;;21.60;57.50;;;;;;5045550;28;20486;-71
2020/12/22 12:08:30;;;;;;;5.53;1.53;;;21.60;57.80;;;;;;5048352;28;20474;-71
2020/12/22 12:10:56;;;;;;;3.97;1.17;;;21.50;57.90;;;;;;5053692;28;20500;-71
2020/12/22 12:13:22;;;;;;;3.07;1.40;;;21.50;58.20;;;;;;5038161;28;20486;-72
2020/12/22 12:15:48;;;;;;;2.13;1.37;;;21.50;58.30;;;;;;5050501;28;20472;-70
2020/12/22 12:18:15;;;;;;;2.33;1.60;;;21.40;58.30;;;;;;5039131;28;20506;-72
2020/12/22 12:20:41;;;;;;;1.30;1.20;;;21.40;58.30;;;;;;5049375;28;20551;-71
2020/12/22 12:23:07;;;;;;;4.13;1.13;;;21.30;58.10;;;;;;5060027;28;20471;-71
2020/12/22 12:25:33;;;;;;;0.83;0.83;;;21.30;58.00;;;;;;5045375;28;20593;-71
2020/12/22 12:28:00;;;;;;;3.50;1.33;;;21.30;58.00;;;;;;5060314;28;20489;-72
2020/12/22 12:30:26;;;;;;;1.70;1.37;;;21.30;58.00;;;;;;5059452;28;20485;-71
2020/12/22 12:32:52;;;;;;;4.17;2.17;;;21.20;57.90;;;;;;5062389;28;20962;-71
2020/12/22 12:35:19;;;;;;;6.47;2.17;;;21.20;58.00;;;;;;5064950;28;21528;-71
2020/12/22 12:37:45;;;;;;;2.60;2.40;;;21.00;58.50;;;;;;5063836;28;21654;-71
2020/12/22 12:40:11;;;;;;;2.80;2.60;;;20.90;59.40;;;;;;5065844;28;20997;-69
2020/12/22 12:42:37;;;;;;;8.43;4.53;;;20.70;56.90;;;;;;5058945;28;20857;-71
2020/12/22 12:45:04;;;;;;;5.77;3.90;;;20.60;59.00;;;;;;5057420;28;20470;-71